createdAt,value
2022-10-18T00:01:56.962Z,48.44
2022-10-18T00:04:23.784Z,51.74
2022-10-18T00:06:50.529Z,52.98
2022-10-18T00:09:17.317Z,50.86
2022-10-18T00:11:44.073Z,48.76
2022-10-18T00:14:10.845Z,47.69
2022-10-18T00:16:37.585Z,47.59
2022-10-18T00:19:04.347Z,46.89
2022-10-18T00:21:31.147Z,47.04
2022-10-18T00:23:58.281Z,46.97
2022-10-18T00:26:25.056Z,46.57
2022-10-18T00:28:51.844Z,46.65
2022-10-18T00:31:18.629Z,46.31
2022-10-18T00:33:45.387Z,48.13
2022-10-18T00:36:12.146Z,51.84
2022-10-18T00:38:38.958Z,53.83
2022-10-18T00:41:05.898Z,50.99
2022-10-18T00:43:32.677Z,49.10
2022-10-18T00:45:59.443Z,47.83
2022-10-18T00:48:26.240Z,47.52
2022-10-18T00:50:53.037Z,47.21
2022-10-18T00:53:19.832Z,47.20
2022-10-18T00:55:46.636Z,47.07
2022-10-18T00:58:13.380Z,46.59
2022-10-18T01:00:40.729Z,46.56
2022-10-18T01:03:07.498Z,47.10
2022-10-18T01:05:34.230Z,51.17
2022-10-18T01:08:00.969Z,52.80
2022-10-18T01:10:27.831Z,52.63
2022-10-18T01:12:54.623Z,49.31
2022-10-18T01:15:21.369Z,48.74
2022-10-18T01:17:48.123Z,48.06
2022-10-18T01:20:14.864Z,47.21
2022-10-18T01:22:41.635Z,47.39
2022-10-18T01:25:08.421Z,47.40
2022-10-18T01:27:35.166Z,46.79
2022-10-18T01:30:02.076Z,46.52
2022-10-18T01:32:28.910Z,46.46
2022-10-18T01:34:55.645Z,46.94
2022-10-18T01:37:22.385Z,50.02
2022-10-18T01:39:49.145Z,52.27
2022-10-18T01:42:15.877Z,53.24
2022-10-18T01:44:42.617Z,49.46
2022-10-18T01:47:09.374Z,48.95
2022-10-18T01:49:36.114Z,48.14
2022-10-18T01:52:03.055Z,47.65
2022-10-18T01:54:29.993Z,47.67
2022-10-18T01:56:57.010Z,47.39
2022-10-18T01:59:23.786Z,46.98
2022-10-18T02:01:50.559Z,46.77
2022-10-18T02:04:17.304Z,46.65
2022-10-18T02:06:44.041Z,48.78
2022-10-18T02:09:10.796Z,51.93
2022-10-18T02:11:37.542Z,53.97
2022-10-18T02:14:04.292Z,50.67
2022-10-18T02:16:31.157Z,49.08
2022-10-18T02:18:58.000Z,48.19
2022-10-18T02:21:24.765Z,48.09
2022-10-18T02:23:51.549Z,47.47
2022-10-18T02:26:18.349Z,47.50
2022-10-18T02:28:45.085Z,47.00
2022-10-18T02:31:11.882Z,46.75
2022-10-18T02:33:38.628Z,46.99
2022-10-18T02:36:05.364Z,46.85
2022-10-18T02:38:32.109Z,48.84
2022-10-18T02:40:58.842Z,51.56
2022-10-18T02:43:25.596Z,53.97
2022-10-18T02:45:52.358Z,50.74
2022-10-18T02:48:19.103Z,49.07
2022-10-18T02:50:45.885Z,48.27
2022-10-18T02:53:12.632Z,47.53
2022-10-18T02:55:39.414Z,47.29
2022-10-18T02:58:06.157Z,47.31
2022-10-18T03:00:32.921Z,46.98
2022-10-18T03:02:59.738Z,47.13
2022-10-18T03:05:26.486Z,46.75
2022-10-18T03:07:53.253Z,46.70
2022-10-18T03:10:19.992Z,50.02
2022-10-18T03:12:46.733Z,52.29
2022-10-18T03:15:13.497Z,53.43
2022-10-18T03:17:40.249Z,49.81
2022-10-18T03:20:06.998Z,48.88
2022-10-18T03:22:33.750Z,47.82
2022-10-18T03:25:00.493Z,47.81
2022-10-18T03:27:27.238Z,47.50
2022-10-18T03:29:54.009Z,47.38
2022-10-18T03:32:20.764Z,46.89
2022-10-18T03:34:47.504Z,46.91
2022-10-18T03:37:14.253Z,46.84
2022-10-18T03:39:40.997Z,49.87
2022-10-18T03:42:07.745Z,52.28
2022-10-18T03:44:34.497Z,54.31
2022-10-18T03:47:01.310Z,49.76
2022-10-18T03:49:28.092Z,48.95
2022-10-18T03:51:54.902Z,47.67
2022-10-18T03:54:21.649Z,47.76
2022-10-18T03:56:48.394Z,47.38
2022-10-18T03:59:17.048Z,47.05
2022-10-18T04:01:43.828Z,46.77
2022-10-18T04:04:10.589Z,46.76
2022-10-18T04:06:37.662Z,46.75
2022-10-18T04:09:07.811Z,47.24
2022-10-18T04:11:36.890Z,51.86
2022-10-18T04:14:03.677Z,53.13
2022-10-18T04:16:30.462Z,51.99
2022-10-18T04:18:57.241Z,49.30
2022-10-18T04:21:24.011Z,48.07
2022-10-18T04:23:50.775Z,48.11
2022-10-18T04:26:17.572Z,47.62
2022-10-18T04:28:44.377Z,47.24
2022-10-18T04:31:11.145Z,47.31
2022-10-18T04:33:37.894Z,47.02
2022-10-18T04:36:04.678Z,47.15
2022-10-18T04:38:31.430Z,46.95
2022-10-18T04:40:58.170Z,50.99
2022-10-18T04:43:24.921Z,52.79
2022-10-18T04:45:51.659Z,52.94
2022-10-18T04:48:18.477Z,49.96
2022-10-18T04:50:45.231Z,48.32
2022-10-18T04:53:12.034Z,48.15
2022-10-18T04:55:38.777Z,47.91
2022-10-18T04:58:05.535Z,47.34
2022-10-18T05:00:33.536Z,47.39
2022-10-18T05:03:03.238Z,46.92
2022-10-18T05:05:49.653Z,46.92
2022-10-18T05:08:16.735Z,46.65
2022-10-18T05:10:43.525Z,47.26
2022-10-18T05:13:10.265Z,50.39
2022-10-18T05:15:37.012Z,52.42
2022-10-18T05:18:03.790Z,52.85
2022-10-18T05:20:30.544Z,49.94
2022-10-18T05:22:57.287Z,48.88
2022-10-18T05:25:24.089Z,47.92
2022-10-18T05:27:50.873Z,47.97
2022-10-18T05:30:17.617Z,47.38
2022-10-18T05:32:44.374Z,47.62
2022-10-18T05:35:11.121Z,47.14
2022-10-18T05:37:37.867Z,47.17
2022-10-18T05:40:04.675Z,47.22
2022-10-18T05:42:31.687Z,50.26
2022-10-18T05:44:58.581Z,52.87
2022-10-18T05:47:25.360Z,52.68
2022-10-18T05:49:52.233Z,50.09
2022-10-18T05:52:19.052Z,48.23
2022-10-18T05:54:45.822Z,47.95
2022-10-18T05:57:12.578Z,47.63
2022-10-18T05:59:39.376Z,47.91
2022-10-18T06:02:06.251Z,47.45
2022-10-18T06:04:33.068Z,46.71
2022-10-18T06:06:59.824Z,47.07
2022-10-18T06:09:27.169Z,46.83
2022-10-18T06:11:54.040Z,49.40
2022-10-18T06:14:20.942Z,52.19
2022-10-18T06:16:47.713Z,53.84
2022-10-18T06:19:14.524Z,51.37
2022-10-18T06:21:41.271Z,49.91
2022-10-18T06:24:08.035Z,47.63
2022-10-18T06:26:34.784Z,48.12
2022-10-18T06:29:01.624Z,47.80
2022-10-18T06:31:28.513Z,47.87
2022-10-18T06:33:55.258Z,47.28
2022-10-18T06:36:22.171Z,47.37
2022-10-18T06:38:48.953Z,47.24
2022-10-18T06:41:15.714Z,46.77
2022-10-18T06:43:43.667Z,49.37
2022-10-18T06:46:10.496Z,52.16
2022-10-18T06:48:37.242Z,53.95
2022-10-18T06:51:03.977Z,50.99
2022-10-18T06:53:30.735Z,49.35
2022-10-18T06:55:57.464Z,48.25
2022-10-18T06:58:24.212Z,48.31
2022-10-18T07:00:51.118Z,47.87
2022-10-18T07:03:17.863Z,47.44
2022-10-18T07:05:44.622Z,47.68
2022-10-18T07:08:11.405Z,47.29
2022-10-18T07:10:38.215Z,46.87
2022-10-18T07:13:27.279Z,47.19
2022-10-18T07:15:51.761Z,48.59
2022-10-18T07:18:18.628Z,51.28
2022-10-18T07:20:45.417Z,52.66
2022-10-18T07:23:12.405Z,52.82
2022-10-18T07:25:39.166Z,49.48
2022-10-18T07:28:05.952Z,48.19
2022-10-18T07:30:32.723Z,47.71
2022-10-18T07:32:59.464Z,47.59
2022-10-18T07:35:26.214Z,47.79
2022-10-18T07:37:52.968Z,47.69
2022-10-18T07:40:19.705Z,47.43
2022-10-18T07:42:46.464Z,46.87
2022-10-18T07:45:13.660Z,47.14
2022-10-18T07:47:40.812Z,50.88
2022-10-18T07:50:07.986Z,52.68
2022-10-18T07:52:34.741Z,54.01
2022-10-18T07:55:01.486Z,50.50
2022-10-18T07:57:28.269Z,49.16
2022-10-18T07:59:56.928Z,48.44
2022-10-18T08:02:23.734Z,48.08
2022-10-18T08:04:50.472Z,47.72
2022-10-18T08:07:17.232Z,47.59
2022-10-18T08:09:43.982Z,47.52
2022-10-18T08:12:10.773Z,47.53
2022-10-18T08:14:37.569Z,48.70
2022-10-18T08:17:04.336Z,51.19
2022-10-18T08:19:31.088Z,52.66
2022-10-18T08:21:57.854Z,53.04
2022-10-18T08:24:24.588Z,50.21
2022-10-18T08:26:51.336Z,48.78
2022-10-18T08:29:23.277Z,47.82
2022-10-18T08:31:50.984Z,48.10
2022-10-18T08:34:19.847Z,48.17
2022-10-18T08:36:46.895Z,47.62
2022-10-18T08:39:13.701Z,47.55
2022-10-18T08:41:40.477Z,47.35
2022-10-18T08:44:07.674Z,47.45
2022-10-18T08:46:34.574Z,47.56
2022-10-18T08:49:01.323Z,50.67
2022-10-18T08:51:28.470Z,52.41
2022-10-18T08:53:55.228Z,53.53
2022-10-18T08:56:24.334Z,50.38
2022-10-18T08:58:51.168Z,49.57
2022-10-18T09:01:17.907Z,48.15
2022-10-18T09:03:44.751Z,47.86
2022-10-18T09:06:11.552Z,47.56
2022-10-18T09:08:38.360Z,47.76
2022-10-18T09:11:05.113Z,47.54
2022-10-18T09:13:31.917Z,47.28
2022-10-18T09:15:58.941Z,47.32
2022-10-18T09:18:25.742Z,48.30
2022-10-18T09:20:52.516Z,51.83
2022-10-18T09:23:19.918Z,53.37
2022-10-18T09:25:46.660Z,53.25
2022-10-18T09:28:13.584Z,50.25
2022-10-18T09:30:40.739Z,48.95
2022-10-18T09:33:07.479Z,48.41
2022-10-18T09:35:34.226Z,48.16
2022-10-18T09:38:00.973Z,47.54
2022-10-18T09:40:27.759Z,47.07
2022-10-18T09:42:54.766Z,47.68
2022-10-18T09:45:21.520Z,47.68
2022-10-18T09:47:48.289Z,51.76
2022-10-18T09:50:15.368Z,53.11
2022-10-18T09:52:42.162Z,53.83
2022-10-18T09:55:08.906Z,50.32
2022-10-18T09:57:35.721Z,49.04
2022-10-18T10:00:03.185Z,48.77
2022-10-18T10:02:29.988Z,48.26
2022-10-18T10:04:56.994Z,47.57
2022-10-18T10:07:23.947Z,47.82
2022-10-18T10:09:50.719Z,48.13
2022-10-18T10:12:17.473Z,47.71
2022-10-18T10:14:44.219Z,47.35
2022-10-18T10:17:10.961Z,51.03
2022-10-18T10:19:37.773Z,53.10
2022-10-18T10:22:04.592Z,54.48
2022-10-18T10:24:31.419Z,51.39
2022-10-18T10:26:58.652Z,49.58
2022-10-18T10:29:43.673Z,49.14
2022-10-18T10:32:11.088Z,48.54
2022-10-18T10:34:40.987Z,48.28
2022-10-18T10:37:10.632Z,47.79
2022-10-18T10:39:37.391Z,47.26
2022-10-18T10:42:05.834Z,47.16
2022-10-18T10:44:34.862Z,47.38
2022-10-18T10:47:01.729Z,47.34
2022-10-18T10:49:39.804Z,51.03
2022-10-18T10:52:09.214Z,53.41
2022-10-18T10:54:52.068Z,53.74
2022-10-18T10:57:19.388Z,50.34
2022-10-18T10:59:46.158Z,49.21
2022-10-18T11:02:13.020Z,48.10
2022-10-18T11:04:41.028Z,48.22
2022-10-18T11:07:07.826Z,48.11
2022-10-18T11:09:34.645Z,47.87
2022-10-18T11:12:01.398Z,47.51
2022-10-18T11:14:28.190Z,47.36
2022-10-18T11:16:54.953Z,50.07
2022-10-18T11:19:23.999Z,52.27
2022-10-18T11:21:53.251Z,54.89
2022-10-18T11:24:19.993Z,51.54
2022-10-18T11:26:49.963Z,50.10
2022-10-18T11:29:20.174Z,49.15
2022-10-18T11:31:46.921Z,48.29
2022-10-18T11:34:13.683Z,48.43
2022-10-18T11:36:46.231Z,47.87
2022-10-18T11:39:23.289Z,48.00
2022-10-18T11:41:50.020Z,47.93
2022-10-18T11:44:16.770Z,52.43
2022-10-18T11:46:43.569Z,53.94
2022-10-18T11:49:10.314Z,53.46
2022-10-18T11:51:50.300Z,50.14
2022-10-18T11:54:23.808Z,49.18
2022-10-18T11:56:50.563Z,48.96
2022-10-18T11:59:17.335Z,48.44
2022-10-18T12:01:44.092Z,48.17
2022-10-18T12:04:10.850Z,47.87
2022-10-18T12:06:37.619Z,47.31
2022-10-18T12:09:04.395Z,47.68
2022-10-18T12:11:31.331Z,49.00
2022-10-18T12:13:58.775Z,51.83
2022-10-18T12:16:49.589Z,54.06
2022-10-18T12:19:12.326Z,52.27
2022-10-18T12:21:39.099Z,49.96
2022-10-18T12:24:05.864Z,49.22
2022-10-18T12:26:32.945Z,48.38
2022-10-18T12:28:59.746Z,48.42
2022-10-18T12:31:26.541Z,47.83
2022-10-18T12:33:53.383Z,48.09
2022-10-18T12:36:20.136Z,47.92
2022-10-18T12:38:46.884Z,49.02
2022-10-18T12:41:13.626Z,51.76
2022-10-18T12:43:40.393Z,53.37
2022-10-18T12:46:12.246Z,52.77
2022-10-18T12:48:42.334Z,49.91
2022-10-18T12:51:09.080Z,49.18
2022-10-18T12:53:35.864Z,49.31
2022-10-18T12:56:02.638Z,48.52
2022-10-18T12:58:29.546Z,48.44
2022-10-18T13:00:56.457Z,47.92
2022-10-18T13:03:23.285Z,48.04
2022-10-18T13:05:55.279Z,47.76
2022-10-18T13:08:22.898Z,49.51
2022-10-18T13:10:49.662Z,51.53
2022-10-18T13:13:38.306Z,53.91
2022-10-18T13:16:03.192Z,52.49
2022-10-18T13:18:29.930Z,50.16
2022-10-18T13:20:56.698Z,49.82
2022-10-18T13:23:23.477Z,49.21
2022-10-18T13:25:50.268Z,48.72
2022-10-18T13:28:17.017Z,48.69
2022-10-18T13:30:43.767Z,48.31
2022-10-18T13:33:10.525Z,47.57
2022-10-18T13:35:37.267Z,47.87
2022-10-18T13:38:04.138Z,50.37
2022-10-18T13:40:30.889Z,52.93
2022-10-18T13:42:57.638Z,55.40
2022-10-18T13:45:24.400Z,52.42
2022-10-18T13:47:51.150Z,50.08
2022-10-18T13:50:17.986Z,49.18
2022-10-18T13:52:44.786Z,48.98
2022-10-18T13:55:11.545Z,48.49
2022-10-18T13:57:38.288Z,48.35
2022-10-18T14:00:05.224Z,48.07
2022-10-18T14:02:50.357Z,47.53
2022-10-18T14:05:24.948Z,49.90
2022-10-18T14:07:52.465Z,52.71
2022-10-18T14:10:19.223Z,54.43
2022-10-18T14:12:45.994Z,52.40
2022-10-18T14:15:12.733Z,50.33
2022-10-18T14:17:40.895Z,49.24
2022-10-18T14:20:08.008Z,48.98
2022-10-18T14:22:35.604Z,48.89
2022-10-18T14:25:02.571Z,48.30
2022-10-18T14:27:29.376Z,47.74
2022-10-18T14:29:56.124Z,48.04
2022-10-18T14:32:22.895Z,48.17
2022-10-18T14:34:49.645Z,48.04
2022-10-18T14:37:16.397Z,51.26
2022-10-18T14:39:43.145Z,53.35
2022-10-18T14:42:09.885Z,54.88
2022-10-18T14:44:36.637Z,51.86
2022-10-18T14:47:03.438Z,49.85
2022-10-18T14:49:30.185Z,49.38
2022-10-18T14:51:56.946Z,48.44
2022-10-18T14:54:26.099Z,48.54
2022-10-18T14:56:55.821Z,48.82
2022-10-18T14:59:22.571Z,48.41
2022-10-18T15:01:49.358Z,47.97
2022-10-18T15:04:16.088Z,48.21
2022-10-18T15:06:42.829Z,49.88
2022-10-18T15:09:09.594Z,52.72
2022-10-18T15:11:36.665Z,54.42
2022-10-18T15:14:03.412Z,52.43
2022-10-18T15:16:30.168Z,50.78
2022-10-18T15:18:56.903Z,48.92
2022-10-18T15:21:23.699Z,48.57
2022-10-18T15:23:50.465Z,48.82
2022-10-18T15:26:18.133Z,48.46
2022-10-18T15:28:50.844Z,48.26
2022-10-18T15:31:17.627Z,47.93
2022-10-18T15:33:44.386Z,50.43
2022-10-18T15:36:11.278Z,52.57
2022-10-18T15:38:38.097Z,54.86
2022-10-18T15:41:04.843Z,53.84
2022-10-18T15:43:31.616Z,50.78
2022-10-18T15:46:01.601Z,49.83
2022-10-18T15:48:31.993Z,49.22
2022-10-18T15:51:01.020Z,48.87
2022-10-18T15:53:27.755Z,48.50
2022-10-18T15:55:55.459Z,48.09
2022-10-18T15:58:22.296Z,47.94
2022-10-18T16:00:49.126Z,47.69
2022-10-18T16:03:15.953Z,51.14
2022-10-18T16:05:42.722Z,52.96
2022-10-18T16:08:10.054Z,54.58
2022-10-18T16:10:37.897Z,52.60
2022-10-18T16:13:04.650Z,50.40
2022-10-18T16:15:31.392Z,49.91
2022-10-18T16:17:58.136Z,49.28
2022-10-18T16:20:24.888Z,48.69
2022-10-18T16:22:51.652Z,48.70
2022-10-18T16:25:18.400Z,48.29
2022-10-18T16:27:45.310Z,48.26
2022-10-18T16:30:12.055Z,48.43
2022-10-18T16:32:38.845Z,50.22
2022-10-18T16:35:05.601Z,50.20
2022-10-18T16:37:32.350Z,53.52
2022-10-18T16:39:59.112Z,54.35
2022-10-18T16:42:25.865Z,51.79
2022-10-18T16:44:54.789Z,50.67
2022-10-18T16:47:21.538Z,49.46
2022-10-18T16:49:49.082Z,49.18
2022-10-18T16:52:15.827Z,48.91
2022-10-18T16:54:42.712Z,48.56
2022-10-18T16:57:11.604Z,48.65
2022-10-18T16:59:38.341Z,48.64
2022-10-18T17:02:09.000Z,48.50
2022-10-18T17:04:35.859Z,50.48
2022-10-18T17:07:02.608Z,51.69
2022-10-18T17:09:29.393Z,55.04
2022-10-18T17:11:56.222Z,53.73
2022-10-18T17:14:22.987Z,51.68
2022-10-18T17:16:53.828Z,50.42
2022-10-18T17:19:22.938Z,49.86
2022-10-18T17:21:49.686Z,49.28
2022-10-18T17:24:16.561Z,49.14
2022-10-18T17:26:43.462Z,48.95
2022-10-18T17:29:10.352Z,48.49
2022-10-18T17:31:37.161Z,48.57
2022-10-18T17:34:04.165Z,48.51
2022-10-18T17:36:30.944Z,50.27
2022-10-18T17:38:57.793Z,49.53
2022-10-18T17:41:24.553Z,51.28
2022-10-18T17:43:51.315Z,53.50
2022-10-18T17:46:19.325Z,53.32
2022-10-18T17:48:46.090Z,52.06
2022-10-18T17:51:12.927Z,50.75
2022-10-18T17:53:39.665Z,50.56
2022-10-18T17:56:07.568Z,49.39
2022-10-18T17:58:34.315Z,49.07
2022-10-18T18:01:01.052Z,48.59
2022-10-18T18:03:27.857Z,48.78
2022-10-18T18:05:54.651Z,48.52
2022-10-18T18:08:21.395Z,48.44
2022-10-18T18:13:18.953Z,50.57
2022-10-18T18:15:46.418Z,49.01
2022-10-18T18:18:13.234Z,50.87
2022-10-18T18:20:39.993Z,53.43
2022-10-18T18:23:06.744Z,53.21
2022-10-18T18:25:33.498Z,52.12
2022-10-18T18:28:03.815Z,51.20
2022-10-18T18:30:33.448Z,50.79
2022-10-18T18:33:00.205Z,49.62
2022-10-18T18:35:26.944Z,49.39
2022-10-18T18:37:53.727Z,49.15
2022-10-18T18:40:20.675Z,49.12
2022-10-18T18:43:01.666Z,48.63
2022-10-18T18:45:34.165Z,48.52
2022-10-18T18:48:00.916Z,48.65
2022-10-18T18:50:27.676Z,50.40
2022-10-18T18:52:54.435Z,48.73
2022-10-18T18:55:21.179Z,51.76
2022-10-18T18:57:47.925Z,53.80
2022-10-18T19:00:14.681Z,53.37
2022-10-18T19:02:41.417Z,52.40
2022-10-18T19:05:08.180Z,50.69
2022-10-18T19:07:36.411Z,50.29
2022-10-18T19:10:03.156Z,50.12
2022-10-18T19:12:29.912Z,49.00
2022-10-18T19:14:56.719Z,49.37
2022-10-18T19:17:23.523Z,48.93
2022-10-18T19:19:50.272Z,48.76
2022-10-18T19:22:17.033Z,48.58
2022-10-18T19:24:43.771Z,48.23
2022-10-18T19:27:12.712Z,50.39
2022-10-18T19:29:39.567Z,50.10
2022-10-18T19:32:06.971Z,49.91
2022-10-18T19:34:34.358Z,52.72
2022-10-18T19:37:01.128Z,52.87
2022-10-18T19:39:27.883Z,52.17
2022-10-18T19:41:55.168Z,51.50
2022-10-18T19:44:22.086Z,50.37
2022-10-18T19:46:48.872Z,49.64
2022-10-18T19:49:15.656Z,49.78
2022-10-18T19:51:42.434Z,49.24
2022-10-18T19:54:09.238Z,49.53
2022-10-18T19:56:36.093Z,48.72
2022-10-18T19:59:03.023Z,48.70
2022-10-18T20:01:29.833Z,48.31
2022-10-18T20:03:56.821Z,48.63
2022-10-18T20:06:23.588Z,50.30
2022-10-18T20:08:50.370Z,49.54
2022-10-18T20:11:17.191Z,50.38
2022-10-18T20:13:43.949Z,53.01
2022-10-18T20:16:10.740Z,53.24
2022-10-18T20:18:37.486Z,51.30
2022-10-18T20:21:04.300Z,51.12
2022-10-18T20:23:32.517Z,49.96
2022-10-18T20:25:59.438Z,49.85
2022-10-18T20:28:26.320Z,49.69
2022-10-18T20:30:53.122Z,48.88
2022-10-18T20:33:19.859Z,49.17
2022-10-18T20:35:50.093Z,48.41
2022-10-18T20:38:18.914Z,48.93
2022-10-18T20:40:45.648Z,48.63
2022-10-18T20:43:12.401Z,48.66
2022-10-18T20:45:39.145Z,49.40
2022-10-18T20:48:05.885Z,47.82
2022-10-18T20:50:32.653Z,53.58
2022-10-18T20:52:59.394Z,55.12
2022-10-18T20:55:26.145Z,53.75
2022-10-18T20:57:52.900Z,51.65
2022-10-18T21:00:19.645Z,50.86
2022-10-18T21:02:46.400Z,50.25
2022-10-18T21:05:13.284Z,49.65
2022-10-18T21:07:40.032Z,48.99
2022-10-18T21:10:06.770Z,49.23
2022-10-18T21:12:34.985Z,48.82
2022-10-18T21:15:02.066Z,48.73
2022-10-18T21:17:28.863Z,48.46
2022-10-18T21:19:55.609Z,48.29
2022-10-18T21:22:22.353Z,48.51
2022-10-18T21:24:49.100Z,48.18
2022-10-18T21:27:15.859Z,50.28
2022-10-18T21:29:42.596Z,48.58
2022-10-18T21:32:09.333Z,52.26
2022-10-18T21:34:36.092Z,53.38
2022-10-18T21:37:02.839Z,52.56
2022-10-18T21:39:30.002Z,51.72
2022-10-18T21:41:56.865Z,50.59
2022-10-18T21:44:23.600Z,49.28
2022-10-18T21:46:50.622Z,49.26
2022-10-18T21:49:17.429Z,49.33
2022-10-18T21:51:44.201Z,48.65
2022-10-18T21:54:10.944Z,48.73
2022-10-18T21:56:37.778Z,48.91
2022-10-18T21:59:04.571Z,47.85
2022-10-18T22:01:32.368Z,48.22
2022-10-18T22:03:59.318Z,47.98
2022-10-18T22:06:26.173Z,49.80
2022-10-18T22:08:52.975Z,49.04
2022-10-18T22:11:19.728Z,50.63
2022-10-18T22:13:46.488Z,52.43
2022-10-18T22:16:14.426Z,52.53
2022-10-18T22:18:41.188Z,51.60
2022-10-18T22:21:07.934Z,50.74
2022-10-18T22:23:34.688Z,49.76
2022-10-18T22:26:01.436Z,49.28
2022-10-18T22:28:28.255Z,49.26
2022-10-18T22:30:55.021Z,48.71
2022-10-18T22:33:21.904Z,48.37
2022-10-18T22:35:48.677Z,47.98
2022-10-18T22:38:15.429Z,48.35
2022-10-18T22:40:42.198Z,47.65
2022-10-18T22:43:08.939Z,47.89
2022-10-18T22:45:35.708Z,47.88
2022-10-18T22:48:02.456Z,49.65
2022-10-18T22:50:29.203Z,47.48
2022-10-18T22:52:55.949Z,51.70
2022-10-18T22:55:22.718Z,55.57
2022-10-18T22:57:49.476Z,53.83
2022-10-18T23:00:16.347Z,51.17
2022-10-18T23:02:43.169Z,50.33
2022-10-18T23:05:10.045Z,49.84
2022-10-18T23:07:36.798Z,49.20
2022-10-18T23:10:03.566Z,48.69
2022-10-18T23:12:30.440Z,48.55
2022-10-18T23:14:57.270Z,48.27
2022-10-18T23:17:24.029Z,48.12
2022-10-18T23:19:50.773Z,48.09
2022-10-18T23:22:21.085Z,47.70
2022-10-18T23:24:47.837Z,47.10
2022-10-18T23:27:14.626Z,47.63
2022-10-18T23:29:41.361Z,48.23
2022-10-18T23:32:08.898Z,48.69
2022-10-18T23:34:35.781Z,46.61
2022-10-18T23:37:02.520Z,54.34
2022-10-18T23:39:29.284Z,55.12
2022-10-18T23:41:56.028Z,51.91
2022-10-18T23:44:22.793Z,50.72
2022-10-18T23:46:49.598Z,49.97
2022-10-18T23:49:16.347Z,49.46
2022-10-18T23:51:43.085Z,48.79
2022-10-18T23:54:09.850Z,48.54
2022-10-18T23:56:36.612Z,48.15
2022-10-18T23:59:03.349Z,48.01
